sensor_id;sensor_type;location;lat;lon;timestamp;pressure;altitude;pressure_sealevel;temperature;humidity
37206;BME280;23099;42.636;23.198;2023-05-19T00:02:13;92217.22;;;10.03;100.00
37206;BME280;23099;42.636;23.198;2023-05-19T00:04:40;92217.22;;;10.03;100.00
37206;BME280;23099;42.636;23.198;2023-05-19T00:07:09;92213.75;;;10.03;100.00
37206;BME280;23099;42.636;23.198;2023-05-19T00:09:38;92220.56;;;10.00;100.00
37206;BME280;23099;42.636;23.198;2023-05-19T00:12:05;92215.59;;;9.99;100.00
37206;BME280;23099;42.636;23.198;2023-05-19T00:14:33;92224.72;;;9.98;100.00
37206;BME280;23099;42.636;23.198;2023-05-19T00:17:00;92212.13;;;9.98;100.00
37206;BME280;23099;42.636;23.198;2023-05-19T00:19:27;92210.25;;;9.99;100.00
37206;BME280;23099;42.636;23.198;2023-05-19T00:21:56;92217.91;;;10.00;100.00
37206;BME280;23099;42.636;23.198;2023-05-19T00:24:23;92208.06;;;10.04;100.00
37206;BME280;23099;42.636;23.198;2023-05-19T00:26:51;92195.78;;;10.00;100.00
37206;BME280;23099;42.636;23.198;2023-05-19T00:29:18;92209.69;;;10.09;100.00
37206;BME280;23099;42.636;23.198;2023-05-19T00:31:44;92215.38;;;10.07;100.00
37206;BME280;23099;42.636;23.198;2023-05-19T00:34:11;92203.25;;;10.10;100.00
37206;BME280;23099;42.636;23.198;2023-05-19T00:36:37;92199.06;;;10.12;100.00
37206;BME280;23099;42.636;23.198;2023-05-19T00:39:04;92202.94;;;10.15;100.00
37206;BME280;23099;42.636;23.198;2023-05-19T00:41:31;92200.63;;;10.13;100.00
37206;BME280;23099;42.636;23.198;2023-05-19T00:43:59;92201.69;;;10.09;100.00
37206;BME280;23099;42.636;23.198;2023-05-19T00:46:26;92197.47;;;10.08;100.00
37206;BME280;23099;42.636;23.198;2023-05-19T00:48:54;92205.41;;;10.04;100.00
37206;BME280;23099;42.636;23.198;2023-05-19T00:51:21;92193.44;;;9.98;100.00
37206;BME280;23099;42.636;23.198;2023-05-19T00:53:49;92193.75;;;9.93;100.00
37206;BME280;23099;42.636;23.198;2023-05-19T00:56:17;92187.28;;;9.94;100.00
37206;BME280;23099;42.636;23.198;2023-05-19T00:58:44;92191.50;;;9.95;100.00
37206;BME280;23099;42.636;23.198;2023-05-19T01:01:12;92189.19;;;9.93;100.00
37206;BME280;23099;42.636;23.198;2023-05-19T01:03:42;92181.50;;;9.92;100.00
37206;BME280;23099;42.636;23.198;2023-05-19T01:06:09;92181.16;;;9.93;100.00
37206;BME280;23099;42.636;23.198;2023-05-19T01:08:36;92181.72;;;9.83;100.00
37206;BME280;23099;42.636;23.198;2023-05-19T01:11:04;92188.88;;;9.79;100.00
37206;BME280;23099;42.636;23.198;2023-05-19T01:13:31;92194.50;;;9.74;100.00
37206;BME280;23099;42.636;23.198;2023-05-19T01:16:01;92176.72;;;9.63;100.00
37206;BME280;23099;42.636;23.198;2023-05-19T01:18:46;92194.63;;;9.62;100.00
37206;BME280;23099;42.636;23.198;2023-05-19T01:21:29;92192.91;;;9.54;100.00
37206;BME280;23099;42.636;23.198;2023-05-19T01:24:14;92193.88;;;9.46;100.00
37206;BME280;23099;42.636;23.198;2023-05-19T01:27:08;92191.00;;;9.35;100.00
37206;BME280;23099;42.636;23.198;2023-05-19T01:29:42;92198.16;;;9.15;100.00
37206;BME280;23099;42.636;23.198;2023-05-19T01:32:16;92194.19;;;9.25;100.00
37206;BME280;23099;42.636;23.198;2023-05-19T01:34:45;92182.59;;;9.17;100.00
37206;BME280;23099;42.636;23.198;2023-05-19T01:37:15;92191.44;;;9.21;100.00
37206;BME280;23099;42.636;23.198;2023-05-19T01:39:43;92187.50;;;9.15;100.00
37206;BME280;23099;42.636;23.198;2023-05-19T01:42:11;92190.41;;;9.10;100.00
37206;BME280;23099;42.636;23.198;2023-05-19T01:44:38;92186.28;;;9.13;100.00
37206;BME280;23099;42.636;23.198;2023-05-19T01:47:05;92190.59;;;9.17;100.00
37206;BME280;23099;42.636;23.198;2023-05-19T01:49:33;92180.34;;;9.19;100.00
37206;BME280;23099;42.636;23.198;2023-05-19T01:52:00;92187.50;;;9.15;100.00
37206;BME280;23099;42.636;23.198;2023-05-19T01:54:27;92198.06;;;9.12;100.00
37206;BME280;23099;42.636;23.198;2023-05-19T01:56:59;92188.16;;;9.12;100.00
37206;BME280;23099;42.636;23.198;2023-05-19T01:59:40;92192.38;;;9.13;100.00
37206;BME280;23099;42.636;23.198;2023-05-19T02:02:16;92191.91;;;9.08;100.00
37206;BME280;23099;42.636;23.198;2023-05-19T02:04:51;92196.13;;;9.09;100.00
37206;BME280;23099;42.636;23.198;2023-05-19T02:07:25;92199.91;;;9.08;100.00
37206;BME280;23099;42.636;23.198;2023-05-19T02:10:04;92201.00;;;9.07;100.00
37206;BME280;23099;42.636;23.198;2023-05-19T02:12:34;92203.34;;;9.08;100.00
37206;BME280;23099;42.636;23.198;2023-05-19T02:15:04;92204.72;;;8.86;100.00
37206;BME280;23099;42.636;23.198;2023-05-19T02:17:35;92195.69;;;8.91;100.00
37206;BME280;23099;42.636;23.198;2023-05-19T02:20:05;92203.25;;;8.89;100.00
37206;BME280;23099;42.636;23.198;2023-05-19T02:22:33;92202.56;;;8.92;100.00
37206;BME280;23099;42.636;23.198;2023-05-19T02:24:59;92205.91;;;8.89;100.00
37206;BME280;23099;42.636;23.198;2023-05-19T02:27:26;92209.69;;;8.88;100.00
37206;BME280;23099;42.636;23.198;2023-05-19T02:29:54;92209.78;;;8.92;100.00
37206;BME280;23099;42.636;23.198;2023-05-19T02:32:21;92215.91;;;8.92;100.00
37206;BME280;23099;42.636;23.198;2023-05-19T02:34:47;92213.22;;;8.92;100.00
37206;BME280;23099;42.636;23.198;2023-05-19T02:37:15;92209.44;;;8.93;100.00
37206;BME280;23099;42.636;23.198;2023-05-19T02:39:43;92213.66;;;8.94;100.00
37206;BME280;23099;42.636;23.198;2023-05-19T02:42:09;92199.19;;;8.95;100.00
37206;BME280;23099;42.636;23.198;2023-05-19T02:44:36;92207.28;;;8.99;100.00
37206;BME280;23099;42.636;23.198;2023-05-19T02:47:03;92204.19;;;8.97;100.00
37206;BME280;23099;42.636;23.198;2023-05-19T02:49:31;92201.09;;;8.95;100.00
37206;BME280;23099;42.636;23.198;2023-05-19T02:52:00;92211.69;;;8.91;100.00
37206;BME280;23099;42.636;23.198;2023-05-19T02:54:28;92206.41;;;8.95;100.00
37206;BME280;23099;42.636;23.198;2023-05-19T02:56:55;92210.63;;;8.96;100.00
37206;BME280;23099;42.636;23.198;2023-05-19T02:59:22;92204.88;;;8.94;100.00
37206;BME280;23099;42.636;23.198;2023-05-19T03:01:49;92209.00;;;8.91;100.00
37206;BME280;23099;42.636;23.198;2023-05-19T03:04:16;92209.44;;;8.93;100.00
37206;BME280;23099;42.636;23.198;2023-05-19T03:06:44;92219.06;;;8.98;100.00
37206;BME280;23099;42.636;23.198;2023-05-19T03:09:11;92225.06;;;8.95;100.00
37206;BME280;23099;42.636;23.198;2023-05-19T03:11:39;92223.28;;;8.99;100.00
37206;BME280;23099;42.636;23.198;2023-05-19T03:14:06;92223.38;;;9.02;100.00
37206;BME280;23099;42.636;23.198;2023-05-19T03:16:34;92221.81;;;9.01;100.00
37206;BME280;23099;42.636;23.198;2023-05-19T03:19:00;92216.47;;;9.01;100.00
37206;BME280;23099;42.636;23.198;2023-05-19T03:21:27;92214.69;;;9.05;100.00
37206;BME280;23099;42.636;23.198;2023-05-19T03:23:54;92219.59;;;9.03;100.00
37206;BME280;23099;42.636;23.198;2023-05-19T03:26:21;92218.72;;;8.99;100.00
37206;BME280;23099;42.636;23.198;2023-05-19T03:28:50;92220.94;;;8.97;100.00
37206;BME280;23099;42.636;23.198;2023-05-19T03:31:17;92232.47;;;9.01;100.00
37206;BME280;23099;42.636;23.198;2023-05-19T03:33:43;92226.03;;;9.02;100.00
37206;BME280;23099;42.636;23.198;2023-05-19T03:36:10;92227.66;;;9.07;100.00
37206;BME280;23099;42.636;23.198;2023-05-19T03:38:37;92231.88;;;9.08;100.00
37206;BME280;23099;42.636;23.198;2023-05-19T03:41:04;92225.34;;;9.05;100.00
37206;BME280;23099;42.636;23.198;2023-05-19T03:43:31;92229.72;;;9.13;100.00
37206;BME280;23099;42.636;23.198;2023-05-19T03:45:59;92229.22;;;9.08;100.00
37206;BME280;23099;42.636;23.198;2023-05-19T03:48:26;92232.38;;;9.13;100.00
37206;BME280;23099;42.636;23.198;2023-05-19T03:50:53;92224.47;;;9.17;100.00
37206;BME280;23099;42.636;23.198;2023-05-19T03:53:19;92233.94;;;9.14;100.00
37206;BME280;23099;42.636;23.198;2023-05-19T03:55:46;92226.13;;;9.21;100.00
37206;BME280;23099;42.636;23.198;2023-05-19T03:58:14;92225.78;;;9.23;100.00
37206;BME280;23099;42.636;23.198;2023-05-19T04:00:41;92224.28;;;9.26;100.00
37206;BME280;23099;42.636;23.198;2023-05-19T04:03:09;92231.16;;;9.27;100.00
37206;BME280;23099;42.636;23.198;2023-05-19T04:05:35;92232.81;;;9.31;100.00
37206;BME280;23099;42.636;23.198;2023-05-19T04:08:02;92226.00;;;9.34;100.00
37206;BME280;23099;42.636;23.198;2023-05-19T04:10:29;92225.38;;;9.40;100.00
37206;BME280;23099;42.636;23.198;2023-05-19T04:12:55;92227.63;;;9.38;100.00
37206;BME280;23099;42.636;23.198;2023-05-19T04:15:22;92234.94;;;9.41;100.00
37206;BME280;23099;42.636;23.198;2023-05-19T04:17:49;92229.44;;;9.50;100.00
37206;BME280;23099;42.636;23.198;2023-05-19T04:20:17;92234.56;;;9.58;100.00
37206;BME280;23099;42.636;23.198;2023-05-19T04:22:44;92236.97;;;9.64;100.00
37206;BME280;23099;42.636;23.198;2023-05-19T04:25:10;92229.41;;;9.66;100.00
37206;BME280;23099;42.636;23.198;2023-05-19T04:27:37;92231.44;;;9.72;100.00
37206;BME280;23099;42.636;23.198;2023-05-19T04:30:05;92238.09;;;9.82;100.00
37206;BME280;23099;42.636;23.198;2023-05-19T04:32:32;92238.53;;;9.84;100.00
37206;BME280;23099;42.636;23.198;2023-05-19T04:34:58;92239.91;;;9.93;100.00
37206;BME280;23099;42.636;23.198;2023-05-19T04:37:27;92238.34;;;9.92;100.00
37206;BME280;23099;42.636;23.198;2023-05-19T04:39:54;92242.56;;;9.93;100.00
37206;BME280;23099;42.636;23.198;2023-05-19T04:42:21;92239.34;;;10.04;100.00
37206;BME280;23099;42.636;23.198;2023-05-19T04:44:50;92242.09;;;10.07;100.00
37206;BME280;23099;42.636;23.198;2023-05-19T04:47:17;92239.47;;;10.11;100.00
37206;BME280;23099;42.636;23.198;2023-05-19T04:49:45;92246.00;;;10.13;100.00
37206;BME280;23099;42.636;23.198;2023-05-19T04:52:12;92248.75;;;10.17;100.00
37206;BME280;23099;42.636;23.198;2023-05-19T04:54:41;92251.97;;;10.22;100.00
37206;BME280;23099;42.636;23.198;2023-05-19T04:57:08;92249.31;;;10.22;100.00
37206;BME280;23099;42.636;23.198;2023-05-19T04:59:35;92247.56;;;10.14;100.00
37206;BME280;23099;42.636;23.198;2023-05-19T05:02:02;92254.34;;;10.27;100.00
37206;BME280;23099;42.636;23.198;2023-05-19T05:04:29;92255.75;;;10.21;100.00
37206;BME280;23099;42.636;23.198;2023-05-19T05:06:56;92255.13;;;10.28;100.00
37206;BME280;23099;42.636;23.198;2023-05-19T05:09:23;92251.81;;;10.35;100.00
37206;BME280;23099;42.636;23.198;2023-05-19T05:11:52;92257.59;;;10.37;100.00
37206;BME280;23099;42.636;23.198;2023-05-19T05:14:19;92259.53;;;10.40;100.00
37206;BME280;23099;42.636;23.198;2023-05-19T05:16:46;92260.81;;;10.46;100.00
37206;BME280;23099;42.636;23.198;2023-05-19T05:19:13;92264.75;;;10.52;100.00
37206;BME280;23099;42.636;23.198;2023-05-19T05:21:41;92254.13;;;10.55;100.00
37206;BME280;23099;42.636;23.198;2023-05-19T05:24:09;92260.25;;;10.56;100.00
37206;BME280;23099;42.636;23.198;2023-05-19T05:26:36;92260.59;;;10.54;100.00
37206;BME280;23099;42.636;23.198;2023-05-19T05:29:04;92258.84;;;10.62;100.00
37206;BME280;23099;42.636;23.198;2023-05-19T05:31:31;92251.25;;;10.64;100.00
37206;BME280;23099;42.636;23.198;2023-05-19T05:33:58;92254.38;;;10.70;100.00
37206;BME280;23099;42.636;23.198;2023-05-19T05:36:25;92255.22;;;10.74;100.00
37206;BME280;23099;42.636;23.198;2023-05-19T05:38:52;92252.31;;;10.82;100.00
37206;BME280;23099;42.636;23.198;2023-05-19T05:41:18;92251.56;;;10.82;100.00
37206;BME280;23099;42.636;23.198;2023-05-19T05:43:46;92258.16;;;10.88;100.00
37206;BME280;23099;42.636;23.198;2023-05-19T05:46:15;92263.66;;;10.95;100.00
37206;BME280;23099;42.636;23.198;2023-05-19T05:48:42;92267.88;;;10.96;100.00
37206;BME280;23099;42.636;23.198;2023-05-19T05:51:09;92259.59;;;11.05;100.00
37206;BME280;23099;42.636;23.198;2023-05-19T05:53:39;92255.88;;;11.09;100.00
37206;BME280;23099;42.636;23.198;2023-05-19T05:56:09;92261.22;;;11.09;100.00
37206;BME280;23099;42.636;23.198;2023-05-19T05:58:36;92269.63;;;11.11;100.00
37206;BME280;23099;42.636;23.198;2023-05-19T06:01:04;92269.28;;;11.13;100.00
37206;BME280;23099;42.636;23.198;2023-05-19T06:03:37;92270.78;;;11.10;100.00
37206;BME280;23099;42.636;23.198;2023-05-19T06:06:04;92272.38;;;11.15;100.00
37206;BME280;23099;42.636;23.198;2023-05-19T06:08:31;92279.94;;;11.09;100.00
37206;BME280;23099;42.636;23.198;2023-05-19T06:10:57;92276.53;;;11.12;100.00
37206;BME280;23099;42.636;23.198;2023-05-19T06:13:24;92278.56;;;11.19;100.00
37206;BME280;23099;42.636;23.198;2023-05-19T06:15:51;92277.50;;;11.23;100.00
37206;BME280;23099;42.636;23.198;2023-05-19T06:18:17;92281.00;;;11.27;100.00
37206;BME280;23099;42.636;23.198;2023-05-19T06:20:45;92282.25;;;11.33;100.00
37206;BME280;23099;42.636;23.198;2023-05-19T06:23:12;92280.84;;;11.40;100.00
37206;BME280;23099;42.636;23.198;2023-05-19T06:25:39;92280.50;;;11.45;100.00
37206;BME280;23099;42.636;23.198;2023-05-19T06:28:05;92277.97;;;11.52;100.00
37206;BME280;23099;42.636;23.198;2023-05-19T06:30:32;92272.63;;;11.55;100.00
37206;BME280;23099;42.636;23.198;2023-05-19T06:32:59;92279.97;;;11.58;100.00
37206;BME280;23099;42.636;23.198;2023-05-19T06:35:25;92278.59;;;11.68;100.00
37206;BME280;23099;42.636;23.198;2023-05-19T06:37:53;92282.78;;;11.69;100.00
37206;BME280;23099;42.636;23.198;2023-05-19T06:40:21;92286.66;;;11.72;100.00
37206;BME280;23099;42.636;23.198;2023-05-19T06:42:48;92278.44;;;11.84;100.00
37206;BME280;23099;42.636;23.198;2023-05-19T06:45:15;92277.84;;;11.94;100.00
37206;BME280;23099;42.636;23.198;2023-05-19T06:47:45;92287.09;;;12.00;100.00
37206;BME280;23099;42.636;23.198;2023-05-19T06:50:12;92283.34;;;12.04;100.00
37206;BME280;23099;42.636;23.198;2023-05-19T06:52:39;92296.03;;;12.08;100.00
37206;BME280;23099;42.636;23.198;2023-05-19T06:55:07;92288.06;;;12.15;100.00
37206;BME280;23099;42.636;23.198;2023-05-19T06:57:34;92293.25;;;12.30;100.00
37206;BME280;23099;42.636;23.198;2023-05-19T07:00:01;92299.84;;;12.36;100.00
37206;BME280;23099;42.636;23.198;2023-05-19T07:02:29;92306.13;;;12.48;100.00
37206;BME280;23099;42.636;23.198;2023-05-19T07:04:55;92305.03;;;12.52;100.00
37206;BME280;23099;42.636;23.198;2023-05-19T07:07:22;92293.00;;;12.72;100.00
37206;BME280;23099;42.636;23.198;2023-05-19T07:09:49;92300.50;;;12.90;100.00
37206;BME280;23099;42.636;23.198;2023-05-19T07:12:17;92297.53;;;13.02;100.00
37206;BME280;23099;42.636;23.198;2023-05-19T07:14:43;92298.81;;;13.12;100.00
37206;BME280;23099;42.636;23.198;2023-05-19T07:17:10;92305.00;;;13.16;100.00
37206;BME280;23099;42.636;23.198;2023-05-19T07:19:37;92296.19;;;13.15;100.00
37206;BME280;23099;42.636;23.198;2023-05-19T07:22:04;92319.34;;;13.30;99.76
37206;BME280;23099;42.636;23.198;2023-05-19T07:24:31;92312.09;;;13.34;98.18
37206;BME280;23099;42.636;23.198;2023-05-19T07:26:57;92310.31;;;13.49;100.00
37206;BME280;23099;42.636;23.198;2023-05-19T07:29:25;92318.41;;;13.53;95.17
37206;BME280;23099;42.636;23.198;2023-05-19T07:31:53;92313.53;;;13.65;96.87
37206;BME280;23099;42.636;23.198;2023-05-19T07:34:22;92309.06;;;13.84;97.89
37206;BME280;23099;42.636;23.198;2023-05-19T07:36:49;92312.22;;;13.96;98.03
37206;BME280;23099;42.636;23.198;2023-05-19T07:39:17;92311.53;;;14.06;94.08
37206;BME280;23099;42.636;23.198;2023-05-19T07:41:44;92303.13;;;14.15;94.61
37206;BME280;23099;42.636;23.198;2023-05-19T07:44:16;92305.94;;;14.33;93.45
37206;BME280;23099;42.636;23.198;2023-05-19T07:46:44;92299.50;;;14.48;97.78
37206;BME280;23099;42.636;23.198;2023-05-19T07:49:11;92309.50;;;14.47;92.55
37206;BME280;23099;42.636;23.198;2023-05-19T07:51:38;92316.88;;;14.65;92.47
37206;BME280;23099;42.636;23.198;2023-05-19T07:54:06;92309.63;;;14.69;90.41
37206;BME280;23099;42.636;23.198;2023-05-19T07:56:33;92301.16;;;14.70;87.90
37206;BME280;23099;42.636;23.198;2023-05-19T07:58:59;92302.75;;;14.82;89.70
37206;BME280;23099;42.636;23.198;2023-05-19T08:01:26;92307.75;;;14.91;88.03
37206;BME280;23099;42.636;23.198;2023-05-19T08:03:54;92312.44;;;15.08;90.25
37206;BME280;23099;42.636;23.198;2023-05-19T08:06:21;92308.25;;;15.21;86.40
37206;BME280;23099;42.636;23.198;2023-05-19T08:08:49;92312.50;;;15.29;87.50
37206;BME280;23099;42.636;23.198;2023-05-19T08:11:16;92315.22;;;15.36;85.03
37206;BME280;23099;42.636;23.198;2023-05-19T08:13:43;92311.38;;;15.48;87.00
37206;BME280;23099;42.636;23.198;2023-05-19T08:16:11;92311.38;;;15.51;87.52
37206;BME280;23099;42.636;23.198;2023-05-19T08:18:38;92322.56;;;15.53;87.83
37206;BME280;23099;42.636;23.198;2023-05-19T08:21:06;92306.44;;;15.68;85.56
37206;BME280;23099;42.636;23.198;2023-05-19T08:23:33;92308.38;;;15.71;83.23
37206;BME280;23099;42.636;23.198;2023-05-19T08:26:01;92314.91;;;15.91;84.04
37206;BME280;23099;42.636;23.198;2023-05-19T08:28:28;92314.13;;;15.87;83.90
37206;BME280;23099;42.636;23.198;2023-05-19T08:30:54;92315.66;;;15.88;84.20
37206;BME280;23099;42.636;23.198;2023-05-19T08:33:21;92323.75;;;15.67;83.32
37206;BME280;23099;42.636;23.198;2023-05-19T08:35:48;92318.38;;;15.77;84.21
37206;BME280;23099;42.636;23.198;2023-05-19T08:38:16;92316.84;;;15.98;83.67
37206;BME280;23099;42.636;23.198;2023-05-19T08:40:45;92329.16;;;15.95;81.06
37206;BME280;23099;42.636;23.198;2023-05-19T08:43:12;92325.69;;;15.91;84.11
37206;BME280;23099;42.636;23.198;2023-05-19T08:45:39;92318.75;;;16.08;85.51
37206;BME280;23099;42.636;23.198;2023-05-19T08:48:08;92311.81;;;15.93;82.34
37206;BME280;23099;42.636;23.198;2023-05-19T08:50:38;92324.94;;;16.15;84.04
37206;BME280;23099;42.636;23.198;2023-05-19T08:53:09;92321.44;;;16.25;83.54
37206;BME280;23099;42.636;23.198;2023-05-19T08:55:43;92315.63;;;16.41;85.10
37206;BME280;23099;42.636;23.198;2023-05-19T08:58:13;92322.97;;;16.44;80.44
37206;BME280;23099;42.636;23.198;2023-05-19T09:00:41;92310.94;;;16.59;81.18
37206;BME280;23099;42.636;23.198;2023-05-19T09:03:08;92317.53;;;16.73;78.78
37206;BME280;23099;42.636;23.198;2023-05-19T09:05:36;92320.19;;;16.80;79.49
37206;BME280;23099;42.636;23.198;2023-05-19T09:08:04;92316.75;;;16.72;80.91
37206;BME280;23099;42.636;23.198;2023-05-19T09:10:30;92311.69;;;16.81;81.01
37206;BME280;23099;42.636;23.198;2023-05-19T09:12:59;92313.63;;;16.84;78.20
37206;BME280;23099;42.636;23.198;2023-05-19T09:15:25;92315.94;;;16.79;77.85
37206;BME280;23099;42.636;23.198;2023-05-19T09:18:04;92316.72;;;16.76;78.58
37206;BME280;23099;42.636;23.198;2023-05-19T09:20:35;92314.00;;;16.83;77.82
37206;BME280;23099;42.636;23.198;2023-05-19T09:23:02;92312.78;;;17.02;78.74
37206;BME280;23099;42.636;23.198;2023-05-19T09:25:29;92308.09;;;17.13;78.88
37206;BME280;23099;42.636;23.198;2023-05-19T09:27:56;92311.97;;;17.15;79.57
37206;BME280;23099;42.636;23.198;2023-05-19T09:30:24;92306.50;;;17.26;79.23
37206;BME280;23099;42.636;23.198;2023-05-19T09:32:51;92300.97;;;17.47;76.88
37206;BME280;23099;42.636;23.198;2023-05-19T09:35:18;92309.44;;;17.49;72.97
37206;BME280;23099;42.636;23.198;2023-05-19T09:37:45;92313.66;;;17.57;75.49
37206;BME280;23099;42.636;23.198;2023-05-19T09:40:13;92311.19;;;17.81;75.91
37206;BME280;23099;42.636;23.198;2023-05-19T09:42:41;92309.25;;;17.85;72.32
37206;BME280;23099;42.636;23.198;2023-05-19T09:45:08;92300.78;;;17.79;74.44
37206;BME280;23099;42.636;23.198;2023-05-19T09:47:38;92300.75;;;17.86;72.47
37206;BME280;23099;42.636;23.198;2023-05-19T09:50:06;92305.94;;;18.11;74.90
37206;BME280;23099;42.636;23.198;2023-05-19T09:52:34;92304.25;;;18.28;70.58
37206;BME280;23099;42.636;23.198;2023-05-19T09:55:01;92307.34;;;18.30;67.55
37206;BME280;23099;42.636;23.198;2023-05-19T09:57:32;92302.50;;;18.48;68.86
37206;BME280;23099;42.636;23.198;2023-05-19T10:00:02;92300.50;;;18.59;68.12
37206;BME280;23099;42.636;23.198;2023-05-19T10:02:40;92304.53;;;18.78;71.77
37206;BME280;23099;42.636;23.198;2023-05-19T10:05:08;92304.44;;;18.89;68.52
37206;BME280;23099;42.636;23.198;2023-05-19T10:07:36;92302.81;;;18.95;66.34
37206;BME280;23099;42.636;23.198;2023-05-19T10:10:08;92297.25;;;18.75;70.03
37206;BME280;23099;42.636;23.198;2023-05-19T10:12:35;92295.41;;;18.65;70.28
37206;BME280;23099;42.636;23.198;2023-05-19T10:15:03;92307.09;;;18.92;66.00
37206;BME280;23099;42.636;23.198;2023-05-19T10:17:31;92294.44;;;18.82;63.28
37206;BME280;23099;42.636;23.198;2023-05-19T10:20:01;92297.78;;;18.56;65.42
37206;BME280;23099;42.636;23.198;2023-05-19T10:22:29;92289.88;;;18.76;68.10
37206;BME280;23099;42.636;23.198;2023-05-19T10:24:55;92292.16;;;19.11;70.10
37206;BME280;23099;42.636;23.198;2023-05-19T10:27:22;92284.03;;;19.11;65.21
37206;BME280;23099;42.636;23.198;2023-05-19T10:29:54;92295.59;;;19.15;62.38
37206;BME280;23099;42.636;23.198;2023-05-19T10:32:25;92284.44;;;19.10;62.55
37206;BME280;23099;42.636;23.198;2023-05-19T10:35:13;92282.91;;;19.08;63.47
37206;BME280;23099;42.636;23.198;2023-05-19T10:37:45;92273.06;;;19.52;61.00
37206;BME280;23099;42.636;23.198;2023-05-19T10:40:20;92271.38;;;19.89;61.61
37206;BME280;23099;42.636;23.198;2023-05-19T10:43:00;92269.78;;;20.15;58.75
37206;BME280;23099;42.636;23.198;2023-05-19T10:45:29;92269.38;;;20.63;61.59
37206;BME280;23099;42.636;23.198;2023-05-19T10:47:59;92275.84;;;20.89;55.27
37206;BME280;23099;42.636;23.198;2023-05-19T10:50:34;92269.56;;;21.11;53.09
37206;BME280;23099;42.636;23.198;2023-05-19T10:53:01;92257.78;;;21.18;49.69
37206;BME280;23099;42.636;23.198;2023-05-19T10:55:43;92266.44;;;21.33;50.70
37206;BME280;23099;42.636;23.198;2023-05-19T10:58:10;92259.50;;;21.48;52.33
37206;BME280;23099;42.636;23.198;2023-05-19T11:00:38;92260.41;;;21.77;50.16
37206;BME280;23099;42.636;23.198;2023-05-19T11:03:12;92245.09;;;21.83;47.38
37206;BME280;23099;42.636;23.198;2023-05-19T11:05:40;92254.00;;;21.68;46.64
37206;BME280;23099;42.636;23.198;2023-05-19T11:08:10;92255.41;;;22.08;47.31
37206;BME280;23099;42.636;23.198;2023-05-19T11:10:37;92252.59;;;22.12;46.38
37206;BME280;23099;42.636;23.198;2023-05-19T11:13:04;92251.84;;;22.28;45.11
37206;BME280;23099;42.636;23.198;2023-05-19T11:15:34;92246.06;;;22.09;43.86
37206;BME280;23099;42.636;23.198;2023-05-19T11:18:01;92250.53;;;21.83;46.74
37206;BME280;23099;42.636;23.198;2023-05-19T11:20:30;92256.81;;;21.64;46.67
37206;BME280;23099;42.636;23.198;2023-05-19T11:23:07;92246.81;;;21.41;50.32
37206;BME280;23099;42.636;23.198;2023-05-19T11:25:41;92261.91;;;21.26;50.27
37206;BME280;23099;42.636;23.198;2023-05-19T11:28:09;92253.25;;;21.67;47.25
37206;BME280;23099;42.636;23.198;2023-05-19T11:30:37;92247.56;;;21.94;42.26
37206;BME280;23099;42.636;23.198;2023-05-19T11:33:05;92245.88;;;22.33;47.94
37206;BME280;23099;42.636;23.198;2023-05-19T11:35:32;92240.22;;;22.56;43.45
37206;BME280;23099;42.636;23.198;2023-05-19T11:37:58;92238.88;;;22.48;47.99
37206;BME280;23099;42.636;23.198;2023-05-19T11:40:27;92236.19;;;22.77;48.20
37206;BME280;23099;42.636;23.198;2023-05-19T11:42:54;92228.38;;;22.63;43.16
37206;BME280;23099;42.636;23.198;2023-05-19T11:45:23;92235.63;;;22.37;42.76
37206;BME280;23099;42.636;23.198;2023-05-19T11:47:51;92231.06;;;21.85;46.48
37206;BME280;23099;42.636;23.198;2023-05-19T11:50:20;92233.28;;;21.74;47.37
37206;BME280;23099;42.636;23.198;2023-05-19T11:52:47;92236.00;;;21.74;44.82
37206;BME280;23099;42.636;23.198;2023-05-19T11:55:14;92235.06;;;21.28;46.56
37206;BME280;23099;42.636;23.198;2023-05-19T11:57:50;92238.56;;;21.09;48.44
37206;BME280;23099;42.636;23.198;2023-05-19T12:00:17;92233.75;;;20.97;47.24
37206;BME280;23099;42.636;23.198;2023-05-19T12:02:43;92236.56;;;20.73;49.60
37206;BME280;23099;42.636;23.198;2023-05-19T12:05:17;92237.72;;;20.53;48.39
37206;BME280;23099;42.636;23.198;2023-05-19T12:07:44;92266.16;;;20.21;50.04
37206;BME280;23099;42.636;23.198;2023-05-19T12:10:14;92286.59;;;19.79;56.04
37206;BME280;23099;42.636;23.198;2023-05-19T12:12:42;92292.03;;;19.52;63.26
37206;BME280;23099;42.636;23.198;2023-05-19T12:15:10;92302.88;;;19.22;68.75
37206;BME280;23099;42.636;23.198;2023-05-19T12:17:37;92304.47;;;18.85;72.32
37206;BME280;23099;42.636;23.198;2023-05-19T12:20:05;92310.34;;;18.35;72.39
37206;BME280;23099;42.636;23.198;2023-05-19T12:22:32;92306.53;;;17.88;75.72
37206;BME280;23099;42.636;23.198;2023-05-19T12:24:59;92301.66;;;17.65;75.92
37206;BME280;23099;42.636;23.198;2023-05-19T12:27:27;92301.00;;;17.40;76.39
37206;BME280;23099;42.636;23.198;2023-05-19T12:29:55;92289.91;;;17.24;78.37
37206;BME280;23099;42.636;23.198;2023-05-19T12:32:23;92316.66;;;16.93;81.85
37206;BME280;23099;42.636;23.198;2023-05-19T12:34:50;92313.69;;;16.67;80.46
37206;BME280;23099;42.636;23.198;2023-05-19T12:37:17;92320.66;;;16.25;82.13
37206;BME280;23099;42.636;23.198;2023-05-19T12:39:44;92311.44;;;16.01;82.93
37206;BME280;23099;42.636;23.198;2023-05-19T12:42:11;92319.50;;;15.87;87.48
37206;BME280;23099;42.636;23.198;2023-05-19T12:44:41;92321.06;;;15.74;87.25
37206;BME280;23099;42.636;23.198;2023-05-19T12:47:12;92317.59;;;15.66;82.37
37206;BME280;23099;42.636;23.198;2023-05-19T12:49:52;92311.44;;;15.55;86.11
37206;BME280;23099;42.636;23.198;2023-05-19T12:52:19;92307.53;;;15.49;86.55
37206;BME280;23099;42.636;23.198;2023-05-19T12:54:47;92312.50;;;15.36;90.39